sensor_id;sensor_type;location;lat;lon;timestamp;pressure;altitude;pressure_sealevel;temperature;humidity
21504;BME280;10913;51.992;9.228;2023-05-23T00:02:03;100104.50;;;18.55;100.00
21504;BME280;10913;51.992;9.228;2023-05-23T00:04:32;100100.28;;;18.49;100.00
21504;BME280;10913;51.992;9.228;2023-05-23T00:06:57;100086.22;;;18.44;100.00
21504;BME280;10913;51.992;9.228;2023-05-23T00:09:23;100087.31;;;18.39;100.00
21504;BME280;10913;51.992;9.228;2023-05-23T00:11:48;100091.91;;;18.37;100.00
21504;BME280;10913;51.992;9.228;2023-05-23T00:14:14;100102.03;;;18.29;100.00
21504;BME280;10913;51.992;9.228;2023-05-23T00:16:40;100099.59;;;18.22;100.00
21504;BME280;10913;51.992;9.228;2023-05-23T00:19:07;100114.34;;;18.11;100.00
21504;BME280;10913;51.992;9.228;2023-05-23T00:21:32;100115.69;;;17.99;100.00
21504;BME280;10913;51.992;9.228;2023-05-23T00:23:58;100112.59;;;17.88;100.00
21504;BME280;10913;51.992;9.228;2023-05-23T00:26:23;100121.66;;;17.84;100.00
21504;BME280;10913;51.992;9.228;2023-05-23T00:28:49;100121.78;;;17.81;100.00
21504;BME280;10913;51.992;9.228;2023-05-23T00:31:14;100118.28;;;17.79;100.00
21504;BME280;10913;51.992;9.228;2023-05-23T00:33:39;100121.94;;;17.78;100.00
21504;BME280;10913;51.992;9.228;2023-05-23T00:36:05;100120.03;;;17.80;100.00
21504;BME280;10913;51.992;9.228;2023-05-23T00:38:30;100123.59;;;17.80;100.00
21504;BME280;10913;51.992;9.228;2023-05-23T00:40:56;100126.13;;;17.83;100.00
21504;BME280;10913;51.992;9.228;2023-05-23T00:43:21;100121.56;;;17.87;100.00
21504;BME280;10913;51.992;9.228;2023-05-23T00:45:49;100116.31;;;17.84;100.00
21504;BME280;10913;51.992;9.228;2023-05-23T00:48:15;100116.50;;;17.79;100.00
21504;BME280;10913;51.992;9.228;2023-05-23T00:50:44;100121.13;;;17.76;100.00
21504;BME280;10913;51.992;9.228;2023-05-23T00:53:10;100118.50;;;17.74;100.00
21504;BME280;10913;51.992;9.228;2023-05-23T00:55:36;100122.16;;;17.72;100.00
21504;BME280;10913;51.992;9.228;2023-05-23T00:58:03;100121.47;;;17.67;100.00
21504;BME280;10913;51.992;9.228;2023-05-23T01:00:31;100119.78;;;17.64;100.00
21504;BME280;10913;51.992;9.228;2023-05-23T01:02:58;100121.66;;;17.61;100.00
21504;BME280;10913;51.992;9.228;2023-05-23T01:05:23;100124.81;;;17.48;100.00
21504;BME280;10913;51.992;9.228;2023-05-23T01:07:49;100126.81;;;17.42;100.00
21504;BME280;10913;51.992;9.228;2023-05-23T01:10:18;100132.41;;;17.36;100.00
21504;BME280;10913;51.992;9.228;2023-05-23T01:15:17;100134.31;;;17.32;100.00
21504;BME280;10913;51.992;9.228;2023-05-23T01:20:37;100128.44;;;17.22;100.00
21504;BME280;10913;51.992;9.228;2023-05-23T01:28:46;100141.31;;;17.11;100.00
21504;BME280;10913;51.992;9.228;2023-05-23T01:31:14;100142.38;;;17.06;100.00
21504;BME280;10913;51.992;9.228;2023-05-23T01:33:41;100132.75;;;17.02;100.00
21504;BME280;10913;51.992;9.228;2023-05-23T01:36:08;100135.53;;;16.99;100.00
21504;BME280;10913;51.992;9.228;2023-05-23T01:38:35;100135.66;;;16.96;100.00
21504;BME280;10913;51.992;9.228;2023-05-23T01:41:01;100142.84;;;16.94;100.00
21504;BME280;10913;51.992;9.228;2023-05-23T01:43:26;100148.28;;;16.91;100.00
21504;BME280;10913;51.992;9.228;2023-05-23T01:45:55;100140.47;;;16.84;100.00
21504;BME280;10913;51.992;9.228;2023-05-23T01:48:22;100135.19;;;16.83;100.00
21504;BME280;10913;51.992;9.228;2023-05-23T01:50:48;100143.25;;;16.81;100.00
21504;BME280;10913;51.992;9.228;2023-05-23T01:53:17;100145.09;;;16.79;100.00
21504;BME280;10913;51.992;9.228;2023-05-23T01:55:43;100139.94;;;16.75;100.00
21504;BME280;10913;51.992;9.228;2023-05-23T01:58:09;100148.00;;;16.73;100.00
21504;BME280;10913;51.992;9.228;2023-05-23T02:00:34;100147.06;;;16.74;100.00
21504;BME280;10913;51.992;9.228;2023-05-23T02:03:00;100145.22;;;16.76;100.00
21504;BME280;10913;51.992;9.228;2023-05-23T02:05:25;100145.34;;;16.73;100.00
21504;BME280;10913;51.992;9.228;2023-05-23T02:07:51;100148.03;;;16.72;100.00
21504;BME280;10913;51.992;9.228;2023-05-23T02:10:17;100147.19;;;16.71;100.00
21504;BME280;10913;51.992;9.228;2023-05-23T02:12:43;100145.34;;;16.73;100.00
21504;BME280;10913;51.992;9.228;2023-05-23T02:15:08;100139.03;;;16.76;100.00
21504;BME280;10913;51.992;9.228;2023-05-23T02:17:34;100146.97;;;16.77;100.00
21504;BME280;10913;51.992;9.228;2023-05-23T02:19:59;100144.34;;;16.76;100.00
21504;BME280;10913;51.992;9.228;2023-05-23T02:22:25;100146.16;;;16.75;100.00
21504;BME280;10913;51.992;9.228;2023-05-23T02:24:50;100145.34;;;16.73;100.00
21504;BME280;10913;51.992;9.228;2023-05-23T02:27:17;100149.84;;;16.71;100.00
21504;BME280;10913;51.992;9.228;2023-05-23T02:29:43;100148.09;;;16.70;100.00
21504;BME280;10913;51.992;9.228;2023-05-23T02:32:08;100145.47;;;16.69;100.00
21504;BME280;10913;51.992;9.228;2023-05-23T02:34:34;100144.66;;;16.67;100.00
21504;BME280;10913;51.992;9.228;2023-05-23T02:36:59;100150.81;;;16.69;100.00
21504;BME280;10913;51.992;9.228;2023-05-23T02:39:26;100145.63;;;16.64;100.00
21504;BME280;10913;51.992;9.228;2023-05-23T02:41:51;100147.44;;;16.62;100.00
21504;BME280;10913;51.992;9.228;2023-05-23T02:44:16;100147.44;;;16.62;100.00
21504;BME280;10913;51.992;9.228;2023-05-23T02:46:47;100147.28;;;16.68;100.00
21504;BME280;10913;51.992;9.228;2023-05-23T02:49:12;100145.44;;;16.70;100.00
21504;BME280;10913;51.992;9.228;2023-05-23T02:51:37;100150.66;;;16.73;100.00
21504;BME280;10913;51.992;9.228;2023-05-23T02:54:03;100147.19;;;16.71;100.00
21504;BME280;10913;51.992;9.228;2023-05-23T02:56:29;100151.59;;;16.72;100.00
21504;BME280;10913;51.992;9.228;2023-05-23T02:58:54;100143.59;;;16.72;100.00
21504;BME280;10913;51.992;9.228;2023-05-23T03:01:20;100148.03;;;16.72;100.00
21504;BME280;10913;51.992;9.228;2023-05-23T03:03:45;100141.06;;;16.68;100.00
21504;BME280;10913;51.992;9.228;2023-05-23T03:06:11;100147.28;;;16.68;100.00
21504;BME280;10913;51.992;9.228;2023-05-23T03:08:41;100141.06;;;16.68;100.00
21504;BME280;10913;51.992;9.228;2023-05-23T03:11:07;100140.19;;;16.67;100.00
21504;BME280;10913;51.992;9.228;2023-05-23T03:13:36;100138.34;;;16.69;100.00
21504;BME280;10913;51.992;9.228;2023-05-23T03:16:01;100134.75;;;16.70;100.00
21504;BME280;10913;51.992;9.228;2023-05-23T03:18:27;100139.28;;;16.68;100.00
21504;BME280;10913;51.992;9.228;2023-05-23T03:20:52;100137.56;;;16.66;100.00
21504;BME280;10913;51.992;9.228;2023-05-23T03:23:17;100142.97;;;16.63;100.00
21504;BME280;10913;51.992;9.228;2023-05-23T03:25:43;100149.22;;;16.63;100.00
21504;BME280;10913;51.992;9.228;2023-05-23T03:28:08;100147.66;;;16.56;100.00
21504;BME280;10913;51.992;9.228;2023-05-23T03:30:33;100154.94;;;16.51;100.00
21504;BME280;10913;51.992;9.228;2023-05-23T03:32:59;100157.84;;;16.43;100.00
21504;BME280;10913;51.992;9.228;2023-05-23T03:35:26;100156.09;;;16.42;100.00
21504;BME280;10913;51.992;9.228;2023-05-23T03:37:51;100151.09;;;16.33;100.00
21504;BME280;10913;51.992;9.228;2023-05-23T03:40:16;100154.69;;;16.32;100.00
21504;BME280;10913;51.992;9.228;2023-05-23T03:42:42;100156.56;;;16.29;100.00
21504;BME280;10913;51.992;9.228;2023-05-23T03:45:07;100161.91;;;16.29;100.00
21504;BME280;10913;51.992;9.228;2023-05-23T03:47:32;100160.19;;;16.26;100.00
21504;BME280;10913;51.992;9.228;2023-05-23T03:49:58;100164.78;;;16.21;100.00
21504;BME280;10913;51.992;9.228;2023-05-23T03:52:23;100162.13;;;16.21;100.00
21504;BME280;10913;51.992;9.228;2023-05-23T03:54:48;100158.53;;;16.22;100.00
21504;BME280;10913;51.992;9.228;2023-05-23T03:57:14;100161.25;;;16.20;100.00
21504;BME280;10913;51.992;9.228;2023-05-23T03:59:40;100164.78;;;16.21;100.00
21504;BME280;10913;51.992;9.228;2023-05-23T04:02:05;100155.13;;;16.18;100.00
21504;BME280;10913;51.992;9.228;2023-05-23T04:04:30;100174.75;;;16.16;100.00
21504;BME280;10913;51.992;9.228;2023-05-23T04:06:56;100181.06;;;16.13;100.00
21504;BME280;10913;51.992;9.228;2023-05-23T04:09:22;100182.88;;;16.11;100.00
21504;BME280;10913;51.992;9.228;2023-05-23T04:11:48;100179.31;;;16.12;100.00
21504;BME280;10913;51.992;9.228;2023-05-23T04:14:14;100190.00;;;16.11;100.00
21504;BME280;10913;51.992;9.228;2023-05-23T04:16:39;100188.41;;;16.05;100.00
21504;BME280;10913;51.992;9.228;2023-05-23T04:19:08;100184.81;;;16.06;100.00
21504;BME280;10913;51.992;9.228;2023-05-23T04:21:34;100191.03;;;16.07;100.00
21504;BME280;10913;51.992;9.228;2023-05-23T04:24:00;100194.66;;;16.04;100.00
21504;BME280;10913;51.992;9.228;2023-05-23T04:26:25;100188.41;;;16.05;100.00
21504;BME280;10913;51.992;9.228;2023-05-23T04:28:50;100184.91;;;16.03;100.00
21504;BME280;10913;51.992;9.228;2023-05-23T04:31:19;100185.88;;;16.01;100.00
21504;BME280;10913;51.992;9.228;2023-05-23T04:33:46;100191.16;;;16.02;100.00
21504;BME280;10913;51.992;9.228;2023-05-23T04:36:11;100190.25;;;16.03;100.00
21504;BME280;10913;51.992;9.228;2023-05-23T04:38:37;100193.03;;;15.99;100.00
21504;BME280;10913;51.992;9.228;2023-05-23T04:41:06;100197.59;;;15.95;100.00
21504;BME280;10913;51.992;9.228;2023-05-23T04:43:34;100195.03;;;15.92;100.00
21504;BME280;10913;51.992;9.228;2023-05-23T04:46:02;100197.78;;;15.89;100.00
21504;BME280;10913;51.992;9.228;2023-05-23T04:48:27;100193.31;;;15.90;100.00
21504;BME280;10913;51.992;9.228;2023-05-23T04:50:53;100196.88;;;15.90;100.00
21504;BME280;10913;51.992;9.228;2023-05-23T04:53:21;100197.69;;;15.92;100.00
21504;BME280;10913;51.992;9.228;2023-05-23T04:55:46;100197.69;;;15.92;100.00
21504;BME280;10913;51.992;9.228;2023-05-23T04:58:11;100195.94;;;15.91;100.00
21504;BME280;10913;51.992;9.228;2023-05-23T05:00:37;100191.59;;;15.89;100.00
21504;BME280;10913;51.992;9.228;2023-05-23T05:03:02;100194.38;;;15.84;100.00
21504;BME280;10913;51.992;9.228;2023-05-23T05:05:27;100192.72;;;15.80;100.00
21504;BME280;10913;51.992;9.228;2023-05-23T05:07:53;100187.38;;;15.80;100.00
21504;BME280;10913;51.992;9.228;2023-05-23T05:10:19;100201.59;;;15.80;100.00
21504;BME280;10913;51.992;9.228;2023-05-23T05:12:48;100198.03;;;15.80;100.00
21504;BME280;10913;51.992;9.228;2023-05-23T05:15:16;100196.28;;;15.79;100.00
21504;BME280;10913;51.992;9.228;2023-05-23T05:17:43;100201.50;;;15.83;100.00
21504;BME280;10913;51.992;9.228;2023-05-23T05:20:09;100197.03;;;15.84;100.00
21504;BME280;10913;51.992;9.228;2023-05-23T05:22:36;100204.06;;;15.87;100.00
21504;BME280;10913;51.992;9.228;2023-05-23T05:25:07;100208.44;;;15.89;100.00
21504;BME280;10913;51.992;9.228;2023-05-23T05:27:51;100200.41;;;15.91;100.00
21504;BME280;10913;51.992;9.228;2023-05-23T05:30:16;100201.50;;;15.83;100.00
21504;BME280;10913;51.992;9.228;2023-05-23T05:32:42;100197.97;;;15.83;100.00
21504;BME280;10913;51.992;9.228;2023-05-23T05:35:10;100203.28;;;15.83;100.00
21504;BME280;10913;51.992;9.228;2023-05-23T05:37:38;100205.03;;;15.84;100.00
21504;BME280;10913;51.992;9.228;2023-05-23T05:40:04;100206.94;;;15.79;100.00
21504;BME280;10913;51.992;9.228;2023-05-23T05:42:31;100202.56;;;15.78;100.00
21504;BME280;10913;51.992;9.228;2023-05-23T05:44:56;100199.91;;;15.78;100.00
21504;BME280;10913;51.992;9.228;2023-05-23T05:47:22;100200.72;;;15.80;100.00
21504;BME280;10913;51.992;9.228;2023-05-23T05:49:47;100201.53;;;15.82;100.00
21504;BME280;10913;51.992;9.228;2023-05-23T05:52:13;100201.53;;;15.82;100.00
21504;BME280;10913;51.992;9.228;2023-05-23T05:54:38;100200.59;;;15.84;100.00
21504;BME280;10913;51.992;9.228;2023-05-23T05:57:04;100197.97;;;15.83;100.00
21504;BME280;10913;51.992;9.228;2023-05-23T05:59:29;100192.63;;;15.83;100.00
21504;BME280;10913;51.992;9.228;2023-05-23T06:01:55;100201.53;;;15.82;100.00
21504;BME280;10913;51.992;9.228;2023-05-23T06:04:20;100200.63;;;15.83;100.00
21504;BME280;10913;51.992;9.228;2023-05-23T06:06:45;100206.78;;;15.85;100.00
21504;BME280;10913;51.992;9.228;2023-05-23T06:09:11;100203.19;;;15.86;100.00
21504;BME280;10913;51.992;9.228;2023-05-23T06:11:36;100207.66;;;15.85;100.00
21504;BME280;10913;51.992;9.228;2023-05-23T06:14:05;100213.84;;;15.86;100.00
21504;BME280;10913;51.992;9.228;2023-05-23T06:16:30;100205.91;;;15.84;100.00
21504;BME280;10913;51.992;9.228;2023-05-23T06:18:55;100210.19;;;15.90;100.00
21504;BME280;10913;51.992;9.228;2023-05-23T06:21:21;100208.41;;;15.91;100.00
21504;BME280;10913;51.992;9.228;2023-05-23T06:23:46;100214.59;;;15.91;100.00
21504;BME280;10913;51.992;9.228;2023-05-23T06:26:12;100212.81;;;15.92;100.00
21504;BME280;10913;51.992;9.228;2023-05-23T06:28:37;100210.22;;;15.89;100.00
21504;BME280;10913;51.992;9.228;2023-05-23T06:31:06;100218.22;;;15.89;100.00
21504;BME280;10913;51.992;9.228;2023-05-23T06:33:33;100215.53;;;15.90;100.00
21504;BME280;10913;51.992;9.228;2023-05-23T06:35:59;100226.13;;;15.92;100.00
21504;BME280;10913;51.992;9.228;2023-05-23T06:38:26;100223.47;;;15.92;100.00
21504;BME280;10913;51.992;9.228;2023-05-23T06:40:52;100221.69;;;15.92;100.00
21504;BME280;10913;51.992;9.228;2023-05-23T06:43:17;100218.97;;;15.94;100.00
21504;BME280;10913;51.992;9.228;2023-05-23T06:45:45;100225.25;;;15.91;100.00
21504;BME280;10913;51.992;9.228;2023-05-23T06:48:10;100232.38;;;15.91;100.00
21504;BME280;10913;51.992;9.228;2023-05-23T06:50:36;100229.81;;;15.88;100.00
21504;BME280;10913;51.992;9.228;2023-05-23T06:53:02;100230.53;;;15.93;100.00
21504;BME280;10913;51.992;9.228;2023-05-23T06:55:27;100239.47;;;15.92;100.00
21504;BME280;10913;51.992;9.228;2023-05-23T06:57:52;100234.91;;;15.95;100.00
21504;BME280;10913;51.992;9.228;2023-05-23T07:00:18;100240.25;;;15.95;100.00
21504;BME280;10913;51.992;9.228;2023-05-23T07:02:43;100243.91;;;15.91;100.00
21504;BME280;10913;51.992;9.228;2023-05-23T07:05:18;100249.31;;;15.88;100.00
21504;BME280;10913;51.992;9.228;2023-05-23T07:07:43;100252.06;;;15.85;100.00
21504;BME280;10913;51.992;9.228;2023-05-23T07:10:09;100254.66;;;15.88;100.00
21504;BME280;10913;51.992;9.228;2023-05-23T07:12:35;100260.03;;;15.87;100.00
21504;BME280;10913;51.992;9.228;2023-05-23T07:15:00;100260.03;;;15.87;100.00
21504;BME280;10913;51.992;9.228;2023-05-23T07:17:26;100256.50;;;15.86;100.00
21504;BME280;10913;51.992;9.228;2023-05-23T07:19:54;100264.56;;;15.83;100.00
21504;BME280;10913;51.992;9.228;2023-05-23T07:22:19;100262.09;;;15.77;100.00
21504;BME280;10913;51.992;9.228;2023-05-23T07:24:45;100255.03;;;15.76;100.00
21504;BME280;10913;51.992;9.228;2023-05-23T07:27:10;100274.63;;;15.73;100.00
21504;BME280;10913;51.992;9.228;2023-05-23T07:29:35;100263.25;;;15.67;100.00
21504;BME280;10913;51.992;9.228;2023-05-23T07:32:01;100266.97;;;15.61;100.00
21504;BME280;10913;51.992;9.228;2023-05-23T07:34:26;100267.75;;;15.65;100.00
21504;BME280;10913;51.992;9.228;2023-05-23T07:36:52;100276.56;;;15.67;100.00
21504;BME280;10913;51.992;9.228;2023-05-23T07:39:17;100274.75;;;15.69;100.00
21504;BME280;10913;51.992;9.228;2023-05-23T07:41:47;100276.44;;;15.71;100.00
21504;BME280;10913;51.992;9.228;2023-05-23T07:44:13;100284.38;;;15.74;100.00
21504;BME280;10913;51.992;9.228;2023-05-23T07:46:38;100286.13;;;15.75;100.00
21504;BME280;10913;51.992;9.228;2023-05-23T07:49:03;100283.41;;;15.77;100.00
21504;BME280;10913;51.992;9.228;2023-05-23T07:51:29;100295.91;;;15.75;100.00
21504;BME280;10913;51.992;9.228;2023-05-23T07:53:54;100293.31;;;15.72;100.00
21504;BME280;10913;51.992;9.228;2023-05-23T07:56:20;100299.56;;;15.71;100.00
21504;BME280;10913;51.992;9.228;2023-05-23T07:58:46;100295.22;;;15.67;100.00
21504;BME280;10913;51.992;9.228;2023-05-23T08:01:11;100300.53;;;15.67;100.00
21504;BME280;10913;51.992;9.228;2023-05-23T08:03:36;100296.97;;;15.68;100.00
21504;BME280;10913;51.992;9.228;2023-05-23T08:06:02;100296.13;;;15.66;100.00
21504;BME280;10913;51.992;9.228;2023-05-23T08:08:27;100305.91;;;15.65;100.00
21504;BME280;10913;51.992;9.228;2023-05-23T08:10:52;100308.69;;;15.61;100.00
21504;BME280;10913;51.992;9.228;2023-05-23T08:13:18;100311.34;;;15.61;100.00
21504;BME280;10913;51.992;9.228;2023-05-23T08:15:43;100309.59;;;15.60;100.00
21504;BME280;10913;51.992;9.228;2023-05-23T08:18:09;100315.94;;;15.56;100.00
21504;BME280;10913;51.992;9.228;2023-05-23T08:20:35;100328.34;;;15.57;100.00
21504;BME280;10913;51.992;9.228;2023-05-23T08:23:01;100332.81;;;15.56;100.00
21504;BME280;10913;51.992;9.228;2023-05-23T08:25:27;100340.88;;;15.51;100.00
21504;BME280;10913;51.992;9.228;2023-05-23T08:27:57;100342.69;;;15.49;100.00
21504;BME280;10913;51.992;9.228;2023-05-23T08:30:23;100351.03;;;15.37;100.00
21504;BME280;10913;51.992;9.228;2023-05-23T08:32:51;100361.75;;;15.34;100.00
21504;BME280;10913;51.992;9.228;2023-05-23T08:35:16;100361.91;;;15.27;100.00
21504;BME280;10913;51.992;9.228;2023-05-23T08:37:42;100369.97;;;15.24;100.00
21504;BME280;10913;51.992;9.228;2023-05-23T08:40:19;100370.81;;;15.26;100.00
21504;BME280;10913;51.992;9.228;2023-05-23T08:42:46;100378.06;;;15.19;100.00
21504;BME280;10913;51.992;9.228;2023-05-23T08:45:12;100378.16;;;15.16;100.00
21504;BME280;10913;51.992;9.228;2023-05-23T08:47:43;100383.53;;;15.14;100.00
21504;BME280;10913;51.992;9.228;2023-05-23T08:50:13;100372.94;;;15.11;100.00
21504;BME280;10913;51.992;9.228;2023-05-23T08:52:46;100382.84;;;15.05;100.00
21504;BME280;10913;51.992;9.228;2023-05-23T08:55:12;100379.28;;;15.06;100.00
21504;BME280;10913;51.992;9.228;2023-05-23T08:57:38;100394.34;;;15.07;100.00
21504;BME280;10913;51.992;9.228;2023-05-23T09:00:09;100395.25;;;15.06;100.00
21504;BME280;10913;51.992;9.228;2023-05-23T09:02:39;100395.19;;;15.09;100.00
21504;BME280;10913;51.992;9.228;2023-05-23T09:05:05;100407.56;;;15.10;100.00
21504;BME280;10913;51.992;9.228;2023-05-23T09:07:31;100416.38;;;15.13;100.00
21504;BME280;10913;51.992;9.228;2023-05-23T09:09:56;100405.75;;;15.12;100.00
21504;BME280;10913;51.992;9.228;2023-05-23T09:12:22;100414.78;;;15.05;100.00
21504;BME280;10913;51.992;9.228;2023-05-23T09:14:47;100424.66;;;15.00;100.00
21504;BME280;10913;51.992;9.228;2023-05-23T09:17:19;100430.06;;;14.97;100.00
21504;BME280;10913;51.992;9.228;2023-05-23T09:19:45;100439.13;;;14.88;100.00
21504;BME280;10913;51.992;9.228;2023-05-23T09:22:11;100445.38;;;14.86;100.00
21504;BME280;10913;51.992;9.228;2023-05-23T09:24:37;100434.78;;;14.82;100.00
21504;BME280;10913;51.992;9.228;2023-05-23T09:27:06;100442.97;;;14.75;100.00
21504;BME280;10913;51.992;9.228;2023-05-23T09:29:36;100448.38;;;14.70;100.00
21504;BME280;10913;51.992;9.228;2023-05-23T09:32:10;100444.00;;;14.66;100.00
21504;BME280;10913;51.992;9.228;2023-05-23T09:34:39;100454.59;;;14.69;100.00
21504;BME280;10913;51.992;9.228;2023-05-23T09:37:05;100451.88;;;14.72;100.00
21504;BME280;10913;51.992;9.228;2023-05-23T09:39:30;100453.47;;;14.79;100.00
21504;BME280;10913;51.992;9.228;2023-05-23T09:41:58;100450.81;;;14.79;100.00
21504;BME280;10913;51.992;9.228;2023-05-23T09:44:23;100456.94;;;14.83;100.00
21504;BME280;10913;51.992;9.228;2023-05-23T09:46:50;100455.88;;;14.92;100.00
21504;BME280;10913;51.992;9.228;2023-05-23T09:49:17;100455.88;;;14.92;100.00
21504;BME280;10913;51.992;9.228;2023-05-23T09:51:43;100455.13;;;14.85;100.00
21504;BME280;10913;51.992;9.228;2023-05-23T09:54:20;100460.50;;;14.82;100.00
21504;BME280;10913;51.992;9.228;2023-05-23T09:56:46;100464.00;;;14.86;100.00
21504;BME280;10913;51.992;9.228;2023-05-23T09:59:12;100468.41;;;14.87;100.00
21504;BME280;10913;51.992;9.228;2023-05-23T10:01:41;100471.16;;;14.82;100.00
21504;BME280;10913;51.992;9.228;2023-05-23T10:04:09;100472.19;;;14.76;100.00
21504;BME280;10913;51.992;9.228;2023-05-23T10:06:45;100475.69;;;14.78;100.00
21504;BME280;10913;51.992;9.228;2023-05-23T10:09:16;100480.13;;;14.78;100.00
21504;BME280;10913;51.992;9.228;2023-05-23T10:14:32;100493.34;;;14.81;100.00
21504;BME280;10913;51.992;9.228;2023-05-23T10:17:14;100507.50;;;14.83;100.00
21504;BME280;10913;51.992;9.228;2023-05-23T10:19:47;100502.06;;;14.89;100.00
21504;BME280;10913;51.992;9.228;2023-05-23T10:22:16;100506.59;;;14.84;100.00
21504;BME280;10913;51.992;9.228;2023-05-23T10:24:44;100509.22;;;14.86;100.00
21504;BME280;10913;51.992;9.228;2023-05-23T10:27:10;100514.53;;;14.86;100.00
21504;BME280;10913;51.992;9.228;2023-05-23T10:29:36;100504.97;;;14.77;100.00
21504;BME280;10913;51.992;9.228;2023-05-23T10:32:02;100515.69;;;14.72;100.00
21504;BME280;10913;51.992;9.228;2023-05-23T10:37:28;100511.44;;;14.64;100.00
21504;BME280;10913;51.992;9.228;2023-05-23T10:47:42;100510.50;;;14.66;100.00
21504;BME280;10913;51.992;9.228;2023-05-23T10:50:12;100520.47;;;14.55;100.00
21504;BME280;10913;51.992;9.228;2023-05-23T10:52:39;100519.84;;;14.39;100.00
21504;BME280;10913;51.992;9.228;2023-05-23T10:55:15;100524.38;;;14.36;100.00
21504;BME280;10913;51.992;9.228;2023-05-23T10:57:42;100522.59;;;14.35;100.00
21504;BME280;10913;51.992;9.228;2023-05-23T11:00:15;100534.19;;;14.31;100.00
21504;BME280;10913;51.992;9.228;2023-05-23T11:02:54;100540.34;;;14.34;100.00
21504;BME280;10913;51.992;9.228;2023-05-23T11:05:23;100541.28;;;14.30;100.00
21504;BME280;10913;51.992;9.228;2023-05-23T11:08:15;100551.03;;;14.31;100.00
21504;BME280;10913;51.992;9.228;2023-05-23T11:11:00;100549.19;;;14.35;100.00
21504;BME280;10913;51.992;9.228;2023-05-23T11:13:57;100567.91;;;14.29;100.00
21504;BME280;10913;51.992;9.228;2023-05-23T11:16:29;100556.34;;;14.30;100.00
21504;BME280;10913;51.992;9.228;2023-05-23T11:24:18;100571.78;;;14.08;100.00
21504;BME280;10913;51.992;9.228;2023-05-23T11:26:57;100569.13;;;14.09;100.00
21504;BME280;10913;51.992;9.228;2023-05-23T11:29:28;100568.31;;;14.03;100.00
21504;BME280;10913;51.992;9.228;2023-05-23T11:31:57;100565.63;;;14.06;100.00
21504;BME280;10913;51.992;9.228;2023-05-23T11:34:25;100566.41;;;14.12;100.00
21504;BME280;10913;51.992;9.228;2023-05-23T11:36:54;100582.31;;;14.14;100.00
21504;BME280;10913;51.992;9.228;2023-05-23T11:39:20;100577.09;;;14.09;100.00
21504;BME280;10913;51.992;9.228;2023-05-23T11:41:59;100579.78;;;14.06;100.00
21504;BME280;10913;51.992;9.228;2023-05-23T11:44:24;100586.06;;;14.01;100.00
21504;BME280;10913;51.992;9.228;2023-05-23T11:46:59;100580.72;;;14.04;100.00
21504;BME280;10913;51.992;9.228;2023-05-23T11:49:30;100585.28;;;13.96;100.00
21504;BME280;10913;51.992;9.228;2023-05-23T11:51:57;100595.06;;;13.94;100.00
21504;BME280;10913;51.992;9.228;2023-05-23T11:54:27;100585.25;;;13.97;100.00
21504;BME280;10913;51.992;9.228;2023-05-23T11:56:53;100596.81;;;13.95;100.00
21504;BME280;10913;51.992;9.228;2023-05-23T11:59:20;100591.56;;;13.90;100.00
21504;BME280;10913;51.992;9.228;2023-05-23T12:01:46;100594.25;;;13.87;100.00
21504;BME280;10913;51.992;9.228;2023-05-23T12:04:14;100597.81;;;13.86;99.99
21504;BME280;10913;51.992;9.228;2023-05-23T12:06:40;100597.81;;;13.86;99.23
21504;BME280;10913;51.992;9.228;2023-05-23T12:09:10;100597.69;;;13.95;98.94
21504;BME280;10913;51.992;9.228;2023-05-23T12:11:36;100602.88;;;14.01;97.89
21504;BME280;10913;51.992;9.228;2023-05-23T12:14:03;100611.50;;;14.19;98.29
21504;BME280;10913;51.992;9.228;2023-05-23T12:16:31;100611.91;;;14.46;98.77
21504;BME280;10913;51.992;9.228;2023-05-23T12:18:58;100616.72;;;14.75;97.07
21504;BME280;10913;51.992;9.228;2023-05-23T12:21:25;100613.69;;;14.94;95.68
21504;BME280;10913;51.992;9.228;2023-05-23T12:23:51;100606.38;;;15.05;94.91
21504;BME280;10913;51.992;9.228;2023-05-23T12:26:16;100606.34;;;15.06;94.06
21504;BME280;10913;51.992;9.228;2023-05-23T12:28:42;100616.13;;;15.04;94.51
21504;BME280;10913;51.992;9.228;2023-05-23T12:33:39;100616.31;;;14.97;92.41
21504;BME280;10913;51.992;9.228;2023-05-23T12:36:05;100618.97;;;14.97;93.22
21504;BME280;10913;51.992;9.228;2023-05-23T12:38:35;100624.97;;;15.06;92.60
21504;BME280;10913;51.992;9.228;2023-05-23T12:41:14;100623.00;;;15.16;91.92
21504;BME280;10913;51.992;9.228;2023-05-23T12:43:47;100625.72;;;15.13;91.49
21504;BME280;10913;51.992;9.228;2023-05-23T12:46:13;100631.16;;;15.07;91.51
21504;BME280;10913;51.992;9.228;2023-05-23T12:48:39;100642.03;;;14.96;92.43
21504;BME280;10913;51.992;9.228;2023-05-23T12:51:05;100642.97;;;14.94;92.41
21504;BME280;10913;51.992;9.228;2023-05-23T12:53:30;100640.38;;;14.89;92.46
21504;BME280;10913;51.992;9.228;2023-05-23T12:55:55;100650.94;;;14.94;91.35
21504;BME280;10913;51.992;9.228;2023-05-23T12:58:21;100644.81;;;14.90;90.30
21504;BME280;10913;51.992;9.228;2023-05-23T13:00:46;100650.13;;;14.90;89.26
21504;BME280;10913;51.992;9.228;2023-05-23T13:03:11;100664.28;;;14.92;88.87
21504;BME280;10913;51.992;9.228;2023-05-23T13:05:37;100663.28;;;14.98;89.13
21504;BME280;10913;51.992;9.228;2023-05-23T13:08:03;100661.53;;;14.97;89.11
21504;BME280;10913;51.992;9.228;2023-05-23T13:10:28;100674.00;;;14.95;89.17
21504;BME280;10913;51.992;9.228;2023-05-23T13:12:53;100667.00;;;14.88;88.49